createdAt,value
2022-07-28T00:00:44.488Z,16.00
2022-07-28T00:03:11.311Z,15.90
2022-07-28T00:05:38.678Z,15.90
2022-07-28T00:08:05.442Z,15.90
2022-07-28T00:10:32.538Z,16.00
2022-07-28T00:12:59.946Z,16.10
2022-07-28T00:15:27.496Z,16.20
2022-07-28T00:17:54.225Z,16.30
2022-07-28T00:20:21.379Z,16.20
2022-07-28T00:22:48.166Z,16.20
2022-07-28T00:25:17.111Z,16.30
2022-07-28T00:27:43.805Z,16.30
2022-07-28T00:30:11.136Z,16.30
2022-07-28T00:32:38.058Z,16.30
2022-07-28T00:35:08.088Z,16.20
2022-07-28T00:37:35.613Z,16.30
2022-07-28T00:40:08.173Z,16.20
2022-07-28T00:42:34.904Z,16.10
2022-07-28T00:45:01.725Z,16.10
2022-07-28T00:47:33.922Z,16.20
2022-07-28T00:50:02.459Z,16.10
2022-07-28T00:52:29.591Z,16.00
2022-07-28T00:54:58.567Z,15.90
2022-07-28T00:57:25.337Z,15.80
2022-07-28T00:59:52.093Z,15.60
2022-07-28T01:02:19.380Z,15.60
2022-07-28T01:04:46.825Z,15.70
2022-07-28T01:07:16.625Z,15.70
2022-07-28T01:09:52.239Z,15.60
2022-07-28T01:12:37.774Z,15.70
2022-07-28T01:15:18.443Z,15.80
2022-07-28T01:17:54.547Z,15.70
2022-07-28T01:20:45.083Z,15.60
2022-07-28T01:23:11.739Z,15.50
2022-07-28T01:26:05.017Z,15.50
2022-07-28T01:29:10.716Z,15.70
2022-07-28T01:31:42.325Z,15.70
2022-07-28T01:34:16.991Z,15.70
2022-07-28T01:36:48.870Z,15.80
2022-07-28T01:39:17.279Z,15.80
2022-07-28T01:41:45.049Z,15.80
2022-07-28T01:44:20.180Z,15.80
2022-07-28T01:46:47.991Z,15.90
2022-07-28T01:49:16.865Z,15.70
2022-07-28T01:51:45.579Z,15.60
2022-07-28T01:54:13.267Z,15.50
2022-07-28T01:56:41.621Z,15.50
2022-07-28T01:59:11.823Z,15.40
2022-07-28T02:01:43.387Z,15.30
2022-07-28T02:04:12.468Z,15.30
2022-07-28T02:06:42.151Z,15.30
2022-07-28T02:09:10.530Z,15.30
2022-07-28T02:11:40.623Z,15.40
2022-07-28T02:14:14.340Z,15.30
2022-07-28T02:16:45.987Z,15.30
2022-07-28T02:19:14.519Z,15.20
2022-07-28T02:21:42.558Z,15.10
2022-07-28T02:24:12.366Z,15.10
2022-07-28T02:26:46.444Z,15.00
2022-07-28T02:29:33.355Z,14.90
2022-07-28T02:32:27.691Z,14.80
2022-07-28T02:35:05.192Z,14.70
2022-07-28T02:37:38.880Z,14.60
2022-07-28T02:40:09.241Z,14.50
2022-07-28T02:42:38.827Z,14.50
2022-07-28T02:45:09.247Z,14.50
2022-07-28T02:47:43.942Z,14.50
2022-07-28T02:50:12.021Z,14.40
2022-07-28T02:52:41.707Z,14.40
2022-07-28T02:55:10.552Z,14.40
2022-07-28T02:57:40.461Z,14.40
2022-07-28T03:00:08.008Z,14.40
2022-07-28T03:02:36.698Z,14.30
2022-07-28T03:05:07.662Z,14.10
2022-07-28T03:07:41.236Z,14.00
2022-07-28T03:10:33.503Z,13.90
2022-07-28T03:13:06.870Z,14.00
2022-07-28T03:15:35.080Z,13.90
2022-07-28T03:18:04.067Z,13.90
2022-07-28T03:20:31.159Z,13.80
2022-07-28T03:22:58.930Z,13.80
2022-07-28T03:25:32.530Z,13.80
2022-07-28T03:28:00.819Z,13.70
2022-07-28T03:30:31.813Z,13.70
2022-07-28T03:33:01.738Z,13.70
2022-07-28T03:35:32.848Z,13.60
2022-07-28T03:38:13.299Z,13.70
2022-07-28T03:40:42.314Z,13.60
2022-07-28T03:43:16.512Z,13.60
2022-07-28T03:45:46.470Z,13.60
2022-07-28T03:48:14.976Z,13.70
2022-07-28T03:50:42.407Z,13.70
2022-07-28T03:53:22.310Z,13.80
2022-07-28T03:55:50.926Z,13.90
2022-07-28T03:58:19.731Z,13.80
2022-07-28T04:00:47.651Z,13.90
2022-07-28T04:03:35.090Z,13.90
2022-07-28T04:06:03.655Z,14.00
2022-07-28T04:08:30.522Z,14.00
2022-07-28T04:10:57.323Z,14.00
2022-07-28T04:13:24.021Z,14.00
2022-07-28T04:15:50.842Z,14.10
2022-07-28T04:18:18.524Z,14.10
2022-07-28T04:20:45.442Z,14.20
2022-07-28T04:23:12.151Z,14.30
2022-07-28T04:25:39.096Z,14.30
2022-07-28T04:28:06.909Z,14.30
2022-07-28T04:30:33.879Z,14.30
2022-07-28T04:33:00.733Z,14.30
2022-07-28T04:35:28.298Z,14.40
2022-07-28T04:37:58.526Z,14.40
2022-07-28T04:40:26.713Z,14.40
2022-07-28T04:42:54.413Z,14.40
2022-07-28T04:45:21.481Z,14.40
2022-07-28T04:47:48.402Z,14.40
2022-07-28T04:50:16.097Z,14.40
2022-07-28T04:52:48.406Z,14.40
2022-07-28T04:55:15.224Z,14.40
2022-07-28T04:57:41.978Z,14.50
2022-07-28T05:00:13.503Z,14.50
2022-07-28T05:02:45.057Z,14.70
2022-07-28T05:05:12.936Z,14.90
2022-07-28T05:07:40.677Z,15.10
2022-07-28T05:10:11.717Z,15.30
2022-07-28T05:12:38.861Z,15.60
2022-07-28T05:15:06.742Z,15.70
2022-07-28T05:17:33.561Z,15.90
2022-07-28T05:20:00.447Z,16.00
2022-07-28T05:22:44.640Z,16.20
2022-07-28T05:25:16.256Z,16.40
2022-07-28T05:27:43.409Z,16.40
2022-07-28T05:30:11.288Z,16.60
2022-07-28T05:32:38.506Z,16.70
2022-07-28T05:35:06.500Z,16.90
2022-07-28T05:37:37.489Z,16.90
2022-07-28T05:40:09.186Z,17.00
2022-07-28T05:42:36.568Z,17.00
2022-07-28T05:45:15.028Z,17.10
2022-07-28T05:47:49.610Z,17.10
2022-07-28T05:50:18.046Z,17.30
2022-07-28T05:52:45.983Z,17.50
2022-07-28T05:55:13.858Z,17.70
2022-07-28T05:57:41.168Z,17.80
2022-07-28T06:00:10.326Z,18.20
2022-07-28T06:02:40.614Z,18.50
2022-07-28T06:05:07.876Z,18.80
2022-07-28T06:07:42.665Z,19.10
2022-07-28T06:10:16.811Z,19.30
2022-07-28T06:12:46.804Z,19.40
2022-07-28T06:15:14.412Z,19.40
2022-07-28T06:17:42.262Z,19.30
2022-07-28T06:20:10.716Z,19.10
2022-07-28T06:22:46.452Z,19.10
2022-07-28T06:25:19.084Z,18.80
2022-07-28T06:27:47.191Z,18.90
2022-07-28T06:30:14.250Z,19.00
2022-07-28T06:32:41.125Z,19.20
2022-07-28T06:35:08.874Z,19.10
2022-07-28T06:37:35.642Z,19.30
2022-07-28T06:40:03.437Z,19.10
2022-07-28T06:42:30.142Z,19.40
2022-07-28T06:44:59.306Z,19.40
2022-07-28T06:47:27.402Z,19.20
2022-07-28T06:49:54.117Z,19.20
2022-07-28T06:52:22.079Z,19.40
2022-07-28T06:54:51.701Z,19.60
2022-07-28T06:57:21.003Z,19.70
2022-07-28T06:59:48.770Z,19.70
2022-07-28T07:02:16.513Z,19.60
2022-07-28T07:04:45.196Z,19.50
2022-07-28T07:07:16.878Z,19.40
2022-07-28T07:09:44.465Z,19.30
2022-07-28T07:12:11.228Z,19.50
2022-07-28T07:14:37.977Z,19.50
2022-07-28T07:17:04.705Z,19.50
2022-07-28T07:19:31.463Z,19.50
2022-07-28T07:21:58.282Z,19.80
2022-07-28T07:24:25.070Z,19.80
2022-07-28T07:26:51.835Z,19.80
2022-07-28T07:29:19.877Z,19.70
2022-07-28T07:31:46.956Z,19.60
2022-07-28T07:34:19.546Z,19.80
2022-07-28T07:36:46.241Z,20.00
2022-07-28T07:39:13.023Z,20.20
2022-07-28T07:41:40.871Z,20.20
2022-07-28T07:44:09.879Z,20.00
2022-07-28T07:46:38.503Z,20.00
2022-07-28T07:49:06.115Z,20.30
2022-07-28T07:51:34.349Z,20.40
2022-07-28T07:54:01.135Z,20.60
2022-07-28T07:56:27.854Z,20.50
2022-07-28T07:58:57.096Z,20.70
2022-07-28T08:01:24.408Z,21.00
2022-07-28T08:03:51.502Z,21.10
2022-07-28T08:06:26.330Z,21.10
2022-07-28T08:08:54.791Z,21.30
2022-07-28T08:11:21.721Z,22.00
2022-07-28T08:13:48.803Z,22.80
2022-07-28T08:16:15.617Z,23.20
2022-07-28T08:18:42.751Z,23.40
2022-07-28T08:21:09.598Z,22.90
2022-07-28T08:23:36.540Z,22.80
2022-07-28T08:26:04.479Z,22.80
2022-07-28T08:28:31.355Z,22.90
2022-07-28T08:30:58.661Z,23.30
2022-07-28T08:33:26.649Z,23.40
2022-07-28T08:35:53.498Z,23.10
2022-07-28T08:38:20.409Z,23.10
2022-07-28T08:40:53.872Z,22.90
2022-07-28T08:43:26.529Z,22.50
2022-07-28T08:45:58.300Z,22.60
2022-07-28T08:48:34.180Z,22.30
2022-07-28T08:51:03.497Z,22.80
2022-07-28T08:53:31.647Z,22.70
2022-07-28T08:56:08.103Z,23.00
2022-07-28T08:58:37.050Z,23.20
2022-07-28T09:01:06.881Z,23.50
2022-07-28T09:03:34.455Z,23.50
2022-07-28T09:06:01.289Z,23.60
2022-07-28T09:08:28.049Z,23.90
2022-07-28T09:10:55.212Z,23.50
2022-07-28T09:13:23.018Z,23.10
2022-07-28T09:15:49.878Z,23.60
2022-07-28T09:18:19.227Z,24.40
2022-07-28T09:20:46.073Z,24.80
2022-07-28T09:23:43.401Z,25.30
2022-07-28T09:26:10.912Z,25.70
2022-07-28T09:28:49.915Z,25.30
2022-07-28T09:31:17.749Z,24.90
2022-07-28T09:34:04.919Z,24.80
2022-07-28T09:36:41.924Z,24.90
2022-07-28T09:39:09.326Z,24.50
2022-07-28T09:41:49.886Z,24.90
2022-07-28T09:44:20.197Z,25.40
2022-07-28T09:46:47.460Z,25.50
2022-07-28T09:49:14.742Z,25.50
2022-07-28T09:51:42.312Z,25.40
2022-07-28T09:54:11.650Z,25.00
2022-07-28T09:56:44.037Z,25.10
2022-07-28T09:59:12.835Z,25.10
2022-07-28T10:01:56.817Z,25.00
2022-07-28T10:04:38.609Z,25.30
2022-07-28T10:07:09.654Z,25.40
2022-07-28T10:09:38.211Z,25.00
2022-07-28T10:12:18.292Z,25.20
2022-07-28T10:14:46.365Z,25.20
2022-07-28T10:17:33.250Z,25.10
2022-07-28T10:20:05.949Z,25.00
2022-07-28T10:22:38.293Z,25.00
2022-07-28T10:25:10.495Z,25.10
2022-07-28T10:27:39.311Z,25.30
2022-07-28T10:30:06.717Z,25.50
2022-07-28T10:32:44.787Z,25.40
2022-07-28T10:35:16.548Z,25.40
2022-07-28T10:37:58.218Z,26.00
2022-07-28T10:40:32.137Z,26.60
2022-07-28T10:43:00.574Z,26.50
2022-07-28T10:45:47.854Z,26.10
2022-07-28T10:48:15.459Z,26.10
2022-07-28T10:50:44.088Z,26.20
2022-07-28T10:53:17.586Z,26.10
2022-07-28T10:55:52.578Z,26.10
2022-07-28T10:58:48.296Z,26.30
2022-07-28T11:01:51.596Z,26.80
2022-07-28T11:04:47.749Z,27.00
2022-07-28T11:07:17.014Z,27.20
2022-07-28T11:09:49.468Z,27.30
2022-07-28T11:12:36.860Z,27.30
2022-07-28T11:15:32.637Z,26.70
2022-07-28T11:18:10.137Z,26.50
2022-07-28T11:21:04.789Z,26.60
2022-07-28T11:23:57.486Z,26.50
2022-07-28T11:26:27.421Z,26.40
2022-07-28T11:29:00.371Z,26.30
2022-07-28T11:31:48.443Z,25.90
2022-07-28T11:34:21.848Z,26.10
2022-07-28T11:36:57.933Z,26.00
2022-07-28T11:39:26.646Z,26.20
2022-07-28T11:41:53.330Z,26.50
2022-07-28T11:44:27.204Z,26.40
2022-07-28T11:47:15.279Z,26.30
2022-07-28T11:49:44.054Z,26.20
2022-07-28T11:52:18.278Z,26.10
2022-07-28T11:54:52.666Z,26.00
2022-07-28T11:57:21.235Z,26.10
2022-07-28T11:59:53.486Z,26.20
2022-07-28T12:02:31.485Z,26.30
2022-07-28T12:05:02.485Z,26.40
2022-07-28T12:07:52.806Z,26.50
2022-07-28T12:10:52.252Z,26.60
2022-07-28T12:13:12.040Z,26.90
2022-07-28T12:15:38.805Z,27.30
2022-07-28T12:18:10.662Z,27.60
2022-07-28T12:20:48.531Z,27.50
2022-07-28T12:23:16.647Z,27.70
2022-07-28T12:25:45.955Z,27.40
2022-07-28T12:28:18.561Z,27.10
2022-07-28T12:30:46.165Z,27.10
2022-07-28T12:33:27.604Z,27.10
2022-07-28T12:35:59.135Z,27.50
2022-07-28T12:38:27.383Z,27.60
2022-07-28T12:40:54.203Z,28.00
2022-07-28T12:43:29.249Z,28.00
2022-07-28T12:45:56.199Z,27.70
2022-07-28T12:48:23.175Z,27.80
2022-07-28T12:50:50.583Z,27.90
2022-07-28T12:53:22.813Z,28.00
2022-07-28T12:55:59.038Z,28.00
2022-07-28T12:58:27.400Z,28.00
2022-07-28T13:00:54.826Z,28.20
2022-07-28T13:03:26.743Z,28.10
2022-07-28T13:06:04.065Z,27.90
2022-07-28T13:08:44.336Z,27.30
2022-07-28T13:11:42.007Z,27.60
2022-07-28T13:14:00.190Z,27.80
2022-07-28T13:16:28.317Z,27.30
2022-07-28T13:18:57.395Z,27.40
2022-07-28T13:21:58.243Z,27.10
2022-07-28T13:24:27.457Z,27.20
2022-07-28T13:26:54.318Z,27.10
2022-07-28T13:29:23.194Z,26.90
2022-07-28T13:31:50.608Z,27.00
2022-07-28T13:34:17.784Z,27.10
2022-07-28T13:36:44.855Z,27.20
2022-07-28T13:39:11.663Z,27.00
2022-07-28T13:41:56.376Z,26.60
2022-07-28T13:44:28.992Z,26.60
2022-07-28T13:46:59.151Z,26.50
2022-07-28T13:49:31.714Z,26.70
2022-07-28T13:51:59.615Z,26.80
2022-07-28T13:54:27.598Z,27.00
2022-07-28T13:56:54.779Z,27.20
2022-07-28T13:59:21.837Z,27.30
2022-07-28T14:01:49.659Z,27.20
2022-07-28T14:04:17.872Z,27.40
2022-07-28T14:06:45.897Z,27.40
2022-07-28T14:09:13.690Z,27.40
2022-07-28T14:11:49.908Z,27.30
2022-07-28T14:14:23.856Z,27.30
2022-07-28T14:16:52.550Z,27.20
2022-07-28T14:19:23.397Z,27.10
2022-07-28T14:22:13.135Z,27.10
2022-07-28T14:24:41.654Z,26.90
2022-07-28T14:27:08.346Z,26.90
2022-07-28T14:29:37.425Z,26.90
2022-07-28T14:32:04.398Z,26.60
2022-07-28T14:34:31.097Z,26.50
2022-07-28T14:36:57.833Z,26.50
2022-07-28T14:39:27.281Z,26.80
2022-07-28T14:41:54.566Z,26.90
2022-07-28T14:44:24.686Z,27.10
2022-07-28T14:46:51.878Z,27.20
2022-07-28T14:49:18.914Z,27.00
2022-07-28T14:51:45.921Z,27.10
2022-07-28T14:54:13.300Z,27.30
2022-07-28T14:56:40.165Z,27.40
2022-07-28T14:59:06.852Z,27.30
2022-07-28T15:01:35.784Z,27.20
2022-07-28T15:04:03.172Z,26.90
2022-07-28T15:06:29.876Z,27.00
2022-07-28T15:08:57.730Z,27.20
2022-07-28T15:11:24.611Z,27.30
2022-07-28T15:13:51.412Z,27.40
2022-07-28T15:16:18.156Z,27.30
2022-07-28T15:18:45.122Z,26.90
2022-07-28T15:21:17.969Z,26.90
2022-07-28T15:23:45.493Z,26.90
2022-07-28T15:26:12.584Z,26.90
2022-07-28T15:28:39.586Z,27.00
2022-07-28T15:31:07.792Z,26.90
2022-07-28T15:33:39.995Z,26.80
2022-07-28T15:36:14.691Z,27.00
2022-07-28T15:38:47.323Z,27.00
2022-07-28T15:41:16.698Z,27.00
2022-07-28T15:43:43.601Z,27.00
2022-07-28T15:46:12.937Z,27.00
2022-07-28T15:48:42.713Z,27.00
2022-07-28T15:51:10.419Z,26.90
2022-07-28T15:53:37.820Z,26.70
2022-07-28T15:56:05.133Z,26.60
2022-07-28T15:58:31.865Z,26.50
2022-07-28T16:01:01.023Z,26.40
2022-07-28T16:03:29.309Z,26.40
2022-07-28T16:05:56.171Z,26.40
2022-07-28T16:08:23.624Z,26.20
2022-07-28T16:10:52.295Z,26.10
2022-07-28T16:13:28.604Z,26.00
2022-07-28T16:16:11.234Z,25.90
2022-07-28T16:18:40.839Z,26.00
2022-07-28T16:21:09.020Z,26.00
2022-07-28T16:23:36.274Z,26.00
2022-07-28T16:26:07.532Z,26.10
2022-07-28T16:28:34.484Z,26.20
2022-07-28T16:31:01.255Z,26.10
2022-07-28T16:33:28.038Z,26.20
2022-07-28T16:36:01.363Z,26.40
2022-07-28T16:38:28.074Z,26.40
2022-07-28T16:40:54.938Z,26.50
2022-07-28T16:43:21.739Z,26.40
2022-07-28T16:45:48.511Z,26.30
2022-07-28T16:48:15.360Z,26.20
2022-07-28T16:50:45.803Z,26.20
2022-07-28T16:53:13.819Z,26.20
2022-07-28T16:55:42.132Z,26.10
2022-07-28T16:58:08.879Z,26.10
2022-07-28T17:00:36.080Z,26.00
2022-07-28T17:03:02.867Z,26.10
2022-07-28T17:05:29.643Z,26.10
2022-07-28T17:07:56.581Z,26.10
2022-07-28T17:10:27.017Z,26.10
2022-07-28T17:12:54.654Z,26.10
2022-07-28T17:15:22.897Z,26.20
2022-07-28T17:17:54.517Z,26.20
2022-07-28T17:20:24.927Z,26.20
2022-07-28T17:22:51.810Z,26.10
2022-07-28T17:28:06.086Z,26.00
2022-07-28T17:30:33.847Z,26.00
2022-07-28T17:33:06.263Z,26.00
2022-07-28T17:35:35.916Z,25.90
2022-07-28T17:38:03.853Z,25.90
2022-07-28T17:40:31.166Z,25.80
2022-07-28T17:42:58.050Z,25.70
2022-07-28T17:45:24.941Z,25.70
2022-07-28T17:47:51.740Z,25.60
2022-07-28T17:50:18.761Z,25.60
2022-07-28T17:52:46.338Z,25.50
2022-07-28T17:55:54.740Z,25.50
2022-07-28T17:58:28.346Z,25.40
2022-07-28T18:01:10.154Z,25.30
2022-07-28T18:03:58.025Z,25.20
2022-07-28T18:06:34.926Z,25.30
2022-07-28T18:09:08.151Z,25.40
2022-07-28T18:11:56.594Z,25.40
2022-07-28T18:14:27.200Z,25.40
2022-07-28T18:16:54.340Z,25.30
2022-07-28T18:19:21.101Z,25.30
2022-07-28T18:21:47.871Z,25.20
2022-07-28T18:24:14.882Z,25.10
2022-07-28T18:26:41.803Z,25.10
2022-07-28T18:29:08.666Z,25.00
2022-07-28T18:31:35.462Z,24.90
2022-07-28T18:34:02.346Z,24.80
2022-07-28T18:36:29.933Z,24.60
2022-07-28T18:38:56.785Z,24.60
2022-07-28T18:41:23.616Z,24.50
2022-07-28T18:43:50.318Z,24.50
2022-07-28T18:46:17.273Z,24.50
2022-07-28T18:48:44.148Z,24.30
2022-07-28T18:51:15.011Z,24.20
2022-07-28T18:53:42.268Z,24.20
2022-07-28T18:56:09.144Z,24.20
2022-07-28T18:58:36.168Z,24.20
2022-07-28T19:01:03.783Z,24.10
2022-07-28T19:03:36.864Z,24.00
2022-07-28T19:06:04.653Z,23.90
2022-07-28T19:08:31.416Z,24.00
2022-07-28T19:10:58.742Z,23.80
2022-07-28T19:13:25.446Z,23.80
2022-07-28T19:15:52.291Z,23.70
2022-07-28T19:18:19.083Z,23.70
2022-07-28T19:20:46.213Z,23.50
2022-07-28T19:23:13.065Z,23.50
2022-07-28T19:25:40.343Z,23.50
2022-07-28T19:28:07.254Z,23.50
2022-07-28T19:30:34.977Z,23.50
2022-07-28T19:33:02.650Z,23.50
2022-07-28T19:35:30.238Z,23.40
2022-07-28T19:37:59.670Z,23.30
2022-07-28T19:40:29.164Z,23.10
2022-07-28T19:42:56.757Z,23.00
2022-07-28T19:45:23.968Z,22.80
2022-07-28T19:47:50.691Z,22.70
2022-07-28T19:50:18.287Z,22.60
2022-07-28T19:52:45.108Z,22.50
2022-07-28T19:55:12.789Z,22.60
2022-07-28T19:57:43.354Z,22.40
2022-07-28T20:00:11.039Z,22.40
2022-07-28T20:02:40.781Z,22.30
2022-07-28T20:05:08.330Z,22.30
2022-07-28T20:07:35.379Z,22.20
2022-07-28T20:10:02.896Z,22.10
2022-07-28T20:12:35.857Z,22.10
2022-07-28T20:15:05.155Z,22.00
2022-07-28T20:17:38.397Z,21.90
2022-07-28T20:20:12.341Z,21.90
2022-07-28T20:22:40.988Z,21.90
2022-07-28T20:25:09.940Z,21.80
2022-07-28T20:27:40.459Z,21.80
2022-07-28T20:30:09.942Z,21.70
2022-07-28T20:32:37.576Z,21.60
2022-07-28T20:35:05.568Z,21.50
2022-07-28T20:37:36.209Z,21.50
2022-07-28T20:40:05.772Z,21.50
2022-07-28T20:42:32.665Z,21.50
2022-07-28T20:44:59.451Z,21.40
2022-07-28T20:47:27.718Z,21.40
2022-07-28T20:49:55.229Z,21.40
2022-07-28T20:52:22.060Z,21.40
2022-07-28T20:54:54.325Z,21.30
2022-07-28T20:57:22.067Z,21.30
2022-07-28T20:59:51.159Z,21.20
2022-07-28T21:02:22.845Z,21.20
2022-07-28T21:04:50.613Z,21.20
2022-07-28T21:08:00.660Z,21.10
2022-07-28T21:10:06.837Z,21.10
2022-07-28T21:12:34.579Z,21.00
2022-07-28T21:15:01.380Z,20.90
2022-07-28T21:17:28.161Z,20.90
2022-07-28T21:19:54.965Z,20.90
2022-07-28T21:22:22.969Z,20.90
2022-07-28T21:24:54.695Z,20.90
2022-07-28T21:27:22.731Z,20.90
2022-07-28T21:29:49.697Z,20.90
2022-07-28T21:32:16.474Z,20.90
2022-07-28T21:34:43.272Z,20.90
2022-07-28T21:37:11.887Z,20.90
2022-07-28T21:39:39.020Z,20.90
2022-07-28T21:42:08.441Z,20.90
2022-07-28T21:44:36.402Z,20.90
2022-07-28T21:47:03.257Z,20.80
2022-07-28T21:49:31.222Z,20.70
2022-07-28T21:51:58.270Z,20.60
2022-07-28T21:54:25.122Z,20.40
2022-07-28T21:56:51.919Z,19.60
2022-07-28T21:59:18.713Z,18.80
2022-07-28T22:01:45.629Z,18.20
2022-07-28T22:04:12.693Z,17.80
2022-07-28T22:06:39.704Z,17.80
2022-07-28T22:09:06.419Z,17.80
2022-07-28T22:11:33.357Z,17.70
2022-07-28T22:14:01.035Z,17.80
2022-07-28T22:16:27.826Z,17.80
2022-07-28T22:18:54.584Z,17.90
2022-07-28T22:21:21.337Z,17.90
2022-07-28T22:23:49.678Z,18.00
2022-07-28T22:26:16.402Z,18.10
2022-07-28T22:28:43.221Z,18.10
2022-07-28T22:31:10.250Z,18.10
2022-07-28T22:33:37.987Z,18.10
2022-07-28T22:36:06.716Z,17.90
2022-07-28T22:38:33.476Z,17.70
2022-07-28T22:41:00.294Z,17.70
2022-07-28T22:43:27.118Z,17.80
2022-07-28T22:45:54.007Z,17.80
2022-07-28T22:48:20.805Z,18.00
2022-07-28T22:50:47.495Z,18.10
2022-07-28T22:53:14.229Z,18.20
2022-07-28T22:55:40.962Z,18.20
2022-07-28T22:58:07.735Z,18.20
2022-07-28T23:00:36.508Z,18.20
2022-07-28T23:03:04.774Z,18.20
2022-07-28T23:05:32.285Z,18.10
2022-07-28T23:07:59.147Z,18.00
2022-07-28T23:10:26.414Z,18.00
2022-07-28T23:12:57.343Z,18.00
2022-07-28T23:15:40.884Z,18.00
2022-07-28T23:18:14.088Z,18.00
2022-07-28T23:20:42.025Z,18.00
2022-07-28T23:23:09.838Z,17.90
2022-07-28T23:25:39.440Z,17.90
2022-07-28T23:28:07.171Z,17.90
2022-07-28T23:30:33.976Z,17.80
2022-07-28T23:33:00.860Z,17.90
2022-07-28T23:35:27.717Z,17.90
2022-07-28T23:37:54.598Z,17.90
2022-07-28T23:40:21.502Z,17.90
2022-07-28T23:42:48.758Z,18.00
2022-07-28T23:45:15.563Z,18.00
2022-07-28T23:47:42.296Z,18.00
2022-07-28T23:50:09.302Z,17.90
2022-07-28T23:52:36.048Z,17.90
2022-07-28T23:55:02.964Z,17.90
2022-07-28T23:57:31.158Z,17.80
